Wixom, Michigan
Current Conditions -  °F | °C
As of 10:53 PM on Wednesday 26 Nov 2014 (Local Time) from KPTK Reporting Station
Light Snow Light Snow  
Wind Chill: 21°   Ceiling: 4800
Heat Index: 28°   Visibility: 9mi
Dew Point: 22°   Wind: 7mph
Humidity: 78%   Direction: 350°N
Pressure: 30.07"   Gusts: NA
Location:  42.52°N, 83.53°W
Report Text: KPTK 270353Z 35006KT 9SM -SN OVC048 M02/M06 A3007 RMK AO2 SLP194 P0000 T10221056
Loading
Personal Weather Stations






























Interactive Weather Map New forecast layout! Learn more

10-Day Weather Forecast

Advertisements
Track Severe Weather on mobile